Time;durP1;ratioP1;P1;durP2;ratioP2;P2;SDS_P1;SDS_P2;PMS_P1;PMS_P2;Temp;Humidity;BMP_temperature;BMP_pressure;BME280_temperature;BME280_humidity;BME280_pressure;Samples;Min_cycle;Max_cycle;Signal;HPM_P1;HPM_P2
2023/03/10 00:01:07;;;;;;;;;;;;;;;;;;5115412;28;19927;-90
2023/03/10 00:03:32;;;;;;;;;;;;;;;;;;5115592;28;20395;-86
2023/03/10 00:05:58;;;;;;;;;;;;;;;;;;5115128;28;20402;-90
2023/03/10 00:08:23;;;;;;;;;;;;;;;;;;5097039;28;19981;-86
2023/03/10 00:10:49;;;;;;;;;;;;;;;;;;5115353;28;19916;-90
2023/03/10 00:13:14;;;;;;;;;;;;;;;;;;5115164;28;19916;-88
2023/03/10 00:15:39;;;;;;;;;;;;;;;;;;5115170;28;19916;-89
2023/03/10 00:18:05;;;;;;;;;;;;;;;;;;5115014;28;19916;-90
2023/03/10 00:20:30;;;;;;;;;;;;;;;;;;5096663;28;19920;-88
2023/03/10 00:22:56;;;;;;;;;;;;;;;;;;5114913;28;19916;-90
2023/03/10 00:25:21;;;;;;;;;;;;;;;;;;5096919;28;19916;-89
2023/03/10 00:27:47;;;;;;;;;;;;;;;;;;5115239;28;19912;-90
2023/03/10 00:30:13;;;;;;;;;;;;;;;;;;5115220;28;20367;-87
2023/03/10 00:32:39;;;;;;;;;;;;;;;;;;5115252;28;19926;-90
2023/03/10 00:35:05;;;;;;;;;;;;;;;;;;5096549;28;19923;-89
2023/03/10 00:37:30;;;;;;;;;;;;;;;;;;5114805;28;19915;-90
2023/03/10 00:39:56;;;;;;;;;;;;;;;;;;5115249;28;19919;-89
2023/03/10 00:42:21;;;;;;;;;;;;;;;;;;5127321;28;19916;-90
2023/03/10 00:44:47;;;;;;;;;;;;;;;;;;5118128;28;20382;-87
2023/03/10 00:47:12;;;;;;;;;;;;;;;;;;5139767;27;19931;-86
2023/03/10 00:49:38;;;;;;;;;;;;;;;;;;5136099;28;20014;-85
2023/03/10 00:52:03;;;;;;;;;;;;;;;;;;5115187;28;19923;-89
2023/03/10 00:54:29;;;;;;;;;;;;;;;;;;5114473;28;19923;-84
2023/03/10 00:56:54;;;;;;;;;;;;;;;;;;5114674;28;20396;-86
2023/03/10 00:59:20;;;;;;;;;;;;;;;;;;5114617;28;19915;-85
2023/03/10 01:01:45;;;;;;;;;;;;;;;;;;5095091;28;20389;-84
2023/03/10 01:04:12;;;;;;;;;;;;;;;;;;5092370;28;19977;-86
2023/03/10 01:06:38;;;;;;;;;;;;;;;;;;5079776;28;19942;-86
2023/03/10 01:09:04;;;;;;;;;;;;;;;;;;5091465;28;19920;-87
2023/03/10 01:11:30;;;;;;;;;;;;;;;;;;5090291;28;19920;-87
2023/03/10 01:13:56;;;;;;;;;;;;;;;;;;5087550;28;19924;-87
2023/03/10 01:16:22;;;;;;;;;;;;;;;;;;5089993;28;19924;-85
2023/03/10 01:18:47;;;;;;;;;;;;;;;;;;5087239;28;19942;-87
2023/03/10 01:21:14;;;;;;;;;;;;;;;;;;5092263;28;20371;-85
2023/03/10 01:23:40;;;;;;;;;;;;;;;;;;5093603;28;19962;-85
2023/03/10 01:26:05;;;;;;;;;;;;;;;;;;5093865;28;19916;-85
2023/03/10 01:28:31;;;;;;;;;;;;;;;;;;5075666;28;20386;-86
2023/03/10 01:30:56;;;;;;;;;;;;;;;;;;5093383;28;20382;-87
2023/03/10 01:33:21;;;;;;;;;;;;;;;;;;5093628;28;20332;-85
2023/03/10 01:35:47;;;;;;;;;;;;;;;;;;5092328;28;19912;-86
2023/03/10 01:38:12;;;;;;;;;;;;;;;;;;5093496;28;19923;-85
2023/03/10 01:40:38;;;;;;;;;;;;;;;;;;5092164;28;20465;-88
2023/03/10 01:43:19;;;;;;;;;;;;;;;;;;5085654;28;19920;-86
2023/03/10 01:45:45;;;;;;;;;;;;;;;;;;5092210;28;20003;-85
2023/03/10 01:48:11;;;;;;;;;;;;;;;;;;5093507;28;20007;-84
2023/03/10 01:50:37;;;;;;;;;;;;;;;;;;5092290;28;19954;-86
2023/03/10 01:53:02;;;;;;;;;;;;;;;;;;5092161;28;19915;-87
2023/03/10 01:55:30;;;;;;;;;;;;;;;;;;5093447;28;19923;-86
2023/03/10 01:57:56;;;;;;;;;;;;;;;;;;5093547;28;19927;-86
2023/03/10 02:00:23;;;;;;;;;;;;;;;;;;5093398;28;19970;-87
2023/03/10 02:02:54;;;;;;;;;;;;;;;;;;5092000;28;19923;-87
2023/03/10 02:05:20;;;;;;;;;;;;;;;;;;5092313;28;20366;-89
2023/03/10 02:07:45;;;;;;;;;;;;;;;;;;5097421;28;19959;-90
2023/03/10 02:10:12;;;;;;;;;;;;;;;;;;5097324;28;19963;-86
2023/03/10 02:12:37;;;;;;;;;;;;;;;;;;5095802;28;19923;-89
2023/03/10 02:15:03;;;;;;;;;;;;;;;;;;5097157;28;19917;-88
2023/03/10 02:17:29;;;;;;;;;;;;;;;;;;5097205;28;19912;-90
2023/03/10 02:20:13;;;;;;;;;;;;;;;;;;5097139;28;19916;-88
2023/03/10 02:22:38;;;;;;;;;;;;;;;;;;5096976;28;19912;-86
2023/03/10 02:25:18;;;;;;;;;;;;;;;;;;5097030;28;19916;-87
2023/03/10 02:27:43;;;;;;;;;;;;;;;;;;5095727;28;19955;-88
2023/03/10 02:30:12;;;;;;;;;;;;;;;;;;5095499;28;19967;-89
2023/03/10 02:32:39;;;;;;;;;;;;;;;;;;5095511;28;20395;-88
2023/03/10 02:35:05;;;;;;;;;;;;;;;;;;5095543;28;19938;-91
2023/03/10 02:37:32;;;;;;;;;;;;;;;;;;5095423;28;19920;-88
2023/03/10 02:39:58;;;;;;;;;;;;;;;;;;5096585;28;19923;-90
2023/03/10 02:42:25;;;;;;;;;;;;;;;;;;5096566;28;19920;-88
2023/03/10 02:44:51;;;;;;;;;;;;;;;;;;5096536;28;20283;-89
2023/03/10 02:47:16;;;;;;;;;;;;;;;;;;5096359;28;19920;-87
2023/03/10 02:49:42;;;;;;;;;;;;;;;;;;5096314;28;19923;-87
2023/03/10 02:52:25;;;;;;;;;;;;;;;;;;5096239;28;19916;-88
2023/03/10 02:54:51;;;;;;;;;;;;;;;;;;5096220;28;19963;-89
2023/03/10 02:57:16;;;;;;;;;;;;;;;;;;5094946;28;20016;-87
2023/03/10 02:59:42;;;;;;;;;;;;;;;;;;5096176;28;20053;-88
2023/03/10 03:02:07;;;;;;;;;;;;;;;;;;5094906;28;20014;-86
2023/03/10 03:04:33;;;;;;;;;;;;;;;;;;5095796;28;19920;-88
2023/03/10 03:06:58;;;;;;;;;;;;;;;;;;5094713;28;19916;-86
2023/03/10 03:09:23;;;;;;;;;;;;;;;;;;5094776;28;19931;-87
2023/03/10 03:11:49;;;;;;;;;;;;;;;;;;5095833;28;19920;-89
2023/03/10 03:14:14;;;;;;;;;;;;;;;;;;5095869;28;19916;-87
2023/03/10 03:16:40;;;;;;;;;;;;;;;;;;5095398;28;19920;-88
2023/03/10 03:19:05;;;;;;;;;;;;;;;;;;5094702;28;20043;-87
2023/03/10 03:21:31;;;;;;;;;;;;;;;;;;5095684;28;19959;-89
2023/03/10 03:23:56;;;;;;;;;;;;;;;;;;5095663;28;20446;-86
2023/03/10 03:26:23;;;;;;;;;;;;;;;;;;5095712;28;19922;-86
2023/03/10 03:28:48;;;;;;;;;;;;;;;;;;5094210;28;19951;-88
2023/03/10 03:31:15;;;;;;;;;;;;;;;;;;5094280;28;19923;-87
2023/03/10 03:33:40;;;;;;;;;;;;;;;;;;5095499;28;19920;-88
2023/03/10 03:36:06;;;;;;;;;;;;;;;;;;5095549;28;19972;-86
2023/03/10 03:38:31;;;;;;;;;;;;;;;;;;5094252;28;20077;-87
2023/03/10 03:40:57;;;;;;;;;;;;;;;;;;5077128;28;19920;-86
2023/03/10 03:43:22;;;;;;;;;;;;;;;;;;5093980;28;19915;-85
2023/03/10 03:45:48;;;;;;;;;;;;;;;;;;5095251;28;19916;-89
2023/03/10 03:48:13;;;;;;;;;;;;;;;;;;5093974;28;20379;-87
2023/03/10 03:50:39;;;;;;;;;;;;;;;;;;5093780;28;19923;-86
2023/03/10 03:53:04;;;;;;;;;;;;;;;;;;5095102;28;19916;-88
2023/03/10 03:55:30;;;;;;;;;;;;;;;;;;5095152;28;19916;-86
2023/03/10 03:57:55;;;;;;;;;;;;;;;;;;5093658;28;19969;-90
2023/03/10 04:00:22;;;;;;;;;;;;;;;;;;5095019;28;19923;-88
2023/03/10 04:02:47;;;;;;;;;;;;;;;;;;5093549;28;19963;-90
2023/03/10 04:05:13;;;;;;;;;;;;;;;;;;5094613;28;19975;-86
2023/03/10 04:07:39;;;;;;;;;;;;;;;;;;5094784;28;19927;-89
2023/03/10 04:10:06;;;;;;;;;;;;;;;;;;5093502;28;19916;-88
2023/03/10 04:12:31;;;;;;;;;;;;;;;;;;5093651;28;19955;-87
2023/03/10 04:14:57;;;;;;;;;;;;;;;;;;5093334;28;19917;-87
2023/03/10 04:17:22;;;;;;;;;;;;;;;;;;5094639;28;20478;-87
2023/03/10 04:19:47;;;;;;;;;;;;;;;;;;5094555;28;20429;-88
2023/03/10 04:22:13;;;;;;;;;;;;;;;;;;5094599;28;20006;-87
2023/03/10 04:24:38;;;;;;;;;;;;;;;;;;5095165;28;19924;-87
2023/03/10 04:27:04;;;;;;;;;;;;;;;;;;5094703;28;19920;-88
2023/03/10 04:29:30;;;;;;;;;;;;;;;;;;5093724;28;19923;-88
2023/03/10 04:31:55;;;;;;;;;;;;;;;;;;5093139;28;19920;-88
2023/03/10 04:34:21;;;;;;;;;;;;;;;;;;5094414;28;19926;-87
2023/03/10 04:36:46;;;;;;;;;;;;;;;;;;5096060;28;19912;-86
2023/03/10 04:39:11;;;;;;;;;;;;;;;;;;5112907;28;19915;-89
2023/03/10 04:41:37;;;;;;;;;;;;;;;;;;5116748;28;19979;-88
2023/03/10 04:44:03;;;;;;;;;;;;;;;;;;5099284;28;19939;-85
2023/03/10 04:46:30;;;;;;;;;;;;;;;;;;5080317;28;19916;-85
2023/03/10 04:48:56;;;;;;;;;;;;;;;;;;5074259;28;20398;-85
2023/03/10 04:51:21;;;;;;;;;;;;;;;;;;5083925;28;19924;-86
2023/03/10 04:53:46;;;;;;;;;;;;;;;;;;5092821;28;19920;-87
2023/03/10 04:56:12;;;;;;;;;;;;;;;;;;5094171;28;19920;-86
2023/03/10 04:58:38;;;;;;;;;;;;;;;;;;5094259;28;20299;-87
2023/03/10 05:01:07;;;;;;;;;;;;;;;;;;5087506;28;19924;-86
2023/03/10 05:03:33;;;;;;;;;;;;;;;;;;5078440;28;19921;-87
2023/03/10 05:05:58;;;;;;;;;;;;;;;;;;5087079;28;19934;-86
2023/03/10 05:08:24;;;;;;;;;;;;;;;;;;5075304;28;20024;-86
2023/03/10 05:10:49;;;;;;;;;;;;;;;;;;5086441;28;20414;-88
2023/03/10 05:13:14;;;;;;;;;;;;;;;;;;5087785;28;19920;-87
2023/03/10 05:15:40;;;;;;;;;;;;;;;;;;5078563;28;19920;-89
2023/03/10 05:18:07;;;;;;;;;;;;;;;;;;5087637;28;20333;-87
2023/03/10 05:20:33;;;;;;;;;;;;;;;;;;5094260;28;20380;-86
2023/03/10 05:22:58;;;;;;;;;;;;;;;;;;5092022;28;19930;-87
2023/03/10 05:25:23;;;;;;;;;;;;;;;;;;5093429;28;19959;-86
2023/03/10 05:27:49;;;;;;;;;;;;;;;;;;5093565;28;19963;-86
2023/03/10 05:30:15;;;;;;;;;;;;;;;;;;5093465;28;19916;-88
2023/03/10 05:32:41;;;;;;;;;;;;;;;;;;5074881;28;19999;-89
2023/03/10 05:35:06;;;;;;;;;;;;;;;;;;5074040;28;19974;-89
2023/03/10 05:37:35;;;;;;;;;;;;;;;;;;5093448;28;19920;-89
2023/03/10 05:40:00;;;;;;;;;;;;;;;;;;5077173;28;19923;-89
2023/03/10 05:42:26;;;;;;;;;;;;;;;;;;5097646;28;19916;-90
2023/03/10 05:44:51;;;;;;;;;;;;;;;;;;5097510;28;19916;-89
2023/03/10 05:47:18;;;;;;;;;;;;;;;;;;5079306;28;19916;-88
2023/03/10 05:49:43;;;;;;;;;;;;;;;;;;5097542;28;20443;-88
2023/03/10 05:52:09;;;;;;;;;;;;;;;;;;5097455;28;19916;-88
2023/03/10 05:54:35;;;;;;;;;;;;;;;;;;5079207;28;20374;-88
2023/03/10 05:57:00;;;;;;;;;;;;;;;;;;5079339;28;20566;-86
2023/03/10 05:59:25;;;;;;;;;;;;;;;;;;5079141;28;19920;-88
2023/03/10 06:01:51;;;;;;;;;;;;;;;;;;5078981;28;19931;-90
2023/03/10 06:04:16;;;;;;;;;;;;;;;;;;5096889;28;19924;-90
2023/03/10 06:06:42;;;;;;;;;;;;;;;;;;5079040;28;19923;-88
2023/03/10 06:09:07;;;;;;;;;;;;;;;;;;5079034;28;19939;-90
2023/03/10 06:11:33;;;;;;;;;;;;;;;;;;5078888;28;20430;-89
2023/03/10 06:13:58;;;;;;;;;;;;;;;;;;5078512;28;19964;-86
2023/03/10 06:16:24;;;;;;;;;;;;;;;;;;5096977;28;19915;-86
2023/03/10 06:18:54;;;;;;;;;;;;;;;;;;5097015;28;19916;-87
2023/03/10 06:21:19;;;;;;;;;;;;;;;;;;5092233;28;19916;-89
2023/03/10 06:23:45;;;;;;;;;;;;;;;;;;5078416;28;20007;-87
2023/03/10 06:26:11;;;;;;;;;;;;;;;;;;5096787;28;19916;-88
2023/03/10 06:28:37;;;;;;;;;;;;;;;;;;5078689;28;20416;-86
2023/03/10 06:31:04;;;;;;;;;;;;;;;;;;5096692;28;19935;-89
2023/03/10 06:33:30;;;;;;;;;;;;;;;;;;5078486;28;19924;-87
2023/03/10 06:35:55;;;;;;;;;;;;;;;;;;5096597;28;19919;-88
2023/03/10 06:38:21;;;;;;;;;;;;;;;;;;5096618;28;19927;-87
2023/03/10 06:40:47;;;;;;;;;;;;;;;;;;5096367;28;20390;-89
2023/03/10 06:43:12;;;;;;;;;;;;;;;;;;5078205;28;20283;-90
2023/03/10 06:45:44;;;;;;;;;;;;;;;;;;5096446;28;19916;-90
2023/03/10 06:48:10;;;;;;;;;;;;;;;;;;5096351;28;19954;-88
2023/03/10 06:50:38;;;;;;;;;;;;;;;;;;5096176;28;19955;-89
2023/03/10 06:53:04;;;;;;;;;;;;;;;;;;5095856;28;19955;-87
2023/03/10 06:55:29;;;;;;;;;;;;;;;;;;5096147;28;19959;-88
2023/03/10 06:57:54;;;;;;;;;;;;;;;;;;5096238;28;19946;-87
2023/03/10 07:00:20;;;;;;;;;;;;;;;;;;5096288;28;19917;-88
2023/03/10 07:02:45;;;;;;;;;;;;;;;;;;5096066;28;19916;-89
2023/03/10 07:05:12;;;;;;;;;;;;;;;;;;5095769;28;19923;-85
2023/03/10 07:07:37;;;;;;;;;;;;;;;;;;5095810;28;19916;-88
2023/03/10 07:10:03;;;;;;;;;;;;;;;;;;5096182;28;19923;-86
2023/03/10 07:12:29;;;;;;;;;;;;;;;;;;5095719;28;19916;-87
2023/03/10 07:14:54;;;;;;;;;;;;;;;;;;5095980;28;20299;-88
2023/03/10 07:17:20;;;;;;;;;;;;;;;;;;5095816;28;19974;-86
2023/03/10 07:19:45;;;;;;;;;;;;;;;;;;5095810;28;19927;-89
2023/03/10 07:22:11;;;;;;;;;;;;;;;;;;5095673;28;19954;-90
2023/03/10 07:24:36;;;;;;;;;;;;;;;;;;5095572;28;19920;-90
2023/03/10 07:27:02;;;;;;;;;;;;;;;;;;5095727;28;19942;-89
2023/03/10 07:29:28;;;;;;;;;;;;;;;;;;5095677;28;19916;-90
2023/03/10 07:31:53;;;;;;;;;;;;;;;;;;5095403;28;20371;-89
2023/03/10 07:34:19;;;;;;;;;;;;;;;;;;5095475;28;20016;-90
2023/03/10 07:36:44;;;;;;;;;;;;;;;;;;5095459;28;19969;-89
2023/03/10 07:39:10;;;;;;;;;;;;;;;;;;5077125;28;20010;-88
2023/03/10 07:41:35;;;;;;;;;;;;;;;;;;5077184;28;19916;-92
2023/03/10 07:44:00;;;;;;;;;;;;;;;;;;5077168;28;19920;-89
2023/03/10 07:46:26;;;;;;;;;;;;;;;;;;5077398;28;19916;-89
2023/03/10 07:48:52;;;;;;;;;;;;;;;;;;5095140;28;20077;-90
2023/03/10 07:51:18;;;;;;;;;;;;;;;;;;5095069;28;19916;-90
2023/03/10 07:53:44;;;;;;;;;;;;;;;;;;5095064;28;19920;-90
2023/03/10 07:56:10;;;;;;;;;;;;;;;;;;5095324;28;19921;-90
2023/03/10 07:58:35;;;;;;;;;;;;;;;;;;5076860;28;19916;-91
2023/03/10 08:01:01;;;;;;;;;;;;;;;;;;5094953;28;20268;-89
2023/03/10 08:03:27;;;;;;;;;;;;;;;;;;5075490;28;19923;-90
2023/03/10 08:05:53;;;;;;;;;;;;;;;;;;5094607;28;20283;-90
2023/03/10 08:08:19;;;;;;;;;;;;;;;;;;5094893;28;19916;-91
2023/03/10 08:10:44;;;;;;;;;;;;;;;;;;5094819;28;19958;-92
2023/03/10 08:13:09;;;;;;;;;;;;;;;;;;5094786;28;19963;-90
2023/03/10 08:15:36;;;;;;;;;;;;;;;;;;5094824;28;19951;-92
2023/03/10 08:18:04;;;;;;;;;;;;;;;;;;5094583;28;19927;-90
2023/03/10 08:20:31;;;;;;;;;;;;;;;;;;5094743;28;19916;-92
2023/03/10 08:22:56;;;;;;;;;;;;;;;;;;5076230;28;19920;-92
2023/03/10 08:25:21;;;;;;;;;;;;;;;;;;5094856;28;19941;-90
2023/03/10 08:27:48;;;;;;;;;;;;;;;;;;5094908;28;20268;-91
2023/03/10 08:30:14;;;;;;;;;;;;;;;;;;5095044;28;19916;-90
2023/03/10 08:32:39;;;;;;;;;;;;;;;;;;5094750;28;20375;-90
2023/03/10 08:35:05;;;;;;;;;;;;;;;;;;5095751;28;19923;-91
2023/03/10 08:37:30;;;;;;;;;;;;;;;;;;5118445;28;19924;-90
2023/03/10 08:39:57;;;;;;;;;;;;;;;;;;5101007;28;19909;-88
2023/03/10 08:42:22;;;;;;;;;;;;;;;;;;5077560;28;20057;-91
2023/03/10 08:44:48;;;;;;;;;;;;;;;;;;5094797;28;20015;-89
2023/03/10 08:47:13;;;;;;;;;;;;;;;;;;5076153;28;19923;-89
2023/03/10 08:49:39;;;;;;;;;;;;;;;;;;5094405;28;19916;-87
2023/03/10 08:52:06;;;;;;;;;;;;;;;;;;5094251;28;19916;-88
2023/03/10 08:54:31;;;;;;;;;;;;;;;;;;5076046;28;20375;-90
2023/03/10 08:56:57;;;;;;;;;;;;;;;;;;5075848;28;19934;-87
2023/03/10 08:59:22;;;;;;;;;;;;;;;;;;5075923;28;19920;-91
2023/03/10 09:01:48;;;;;;;;;;;;;;;;;;5094130;28;19923;-90
2023/03/10 09:04:13;;;;;;;;;;;;;;;;;;5093765;28;19920;-90
2023/03/10 09:06:39;;;;;;;;;;;;;;;;;;5075708;28;19916;-89
2023/03/10 09:09:05;;;;;;;;;;;;;;;;;;5075889;28;20298;-89
2023/03/10 09:11:31;;;;;;;;;;;;;;;;;;5093917;28;19942;-90
2023/03/10 09:13:57;;;;;;;;;;;;;;;;;;5075326;28;19920;-89
2023/03/10 09:16:23;;;;;;;;;;;;;;;;;;5075820;28;20015;-89
2023/03/10 09:18:48;;;;;;;;;;;;;;;;;;5075817;28;19943;-87
2023/03/10 09:21:14;;;;;;;;;;;;;;;;;;5093730;28;19927;-84
2023/03/10 09:23:41;;;;;;;;;;;;;;;;;;5093429;28;19920;-86
2023/03/10 09:26:08;;;;;;;;;;;;;;;;;;5075357;28;20381;-85
2023/03/10 09:28:34;;;;;;;;;;;;;;;;;;5093539;28;19920;-86
2023/03/10 09:31:00;;;;;;;;;;;;;;;;;;5093733;28;20006;-85
2023/03/10 09:33:25;;;;;;;;;;;;;;;;;;5093469;28;19955;-85
2023/03/10 09:35:51;;;;;;;;;;;;;;;;;;5093750;28;20018;-86
2023/03/10 09:38:16;;;;;;;;;;;;;;;;;;5075826;28;20034;-86
2023/03/10 09:40:44;;;;;;;;;;;;;;;;;;5093341;28;19920;-86
2023/03/10 09:43:17;;;;;;;;;;;;;;;;;;5093331;28;20383;-86
2023/03/10 09:45:42;;;;;;;;;;;;;;;;;;5093774;28;19916;-86
2023/03/10 09:48:20;;;;;;;;;;;;;;;;;;5075130;28;20321;-87
2023/03/10 09:50:47;;;;;;;;;;;;;;;;;;5093391;28;19935;-85
2023/03/10 09:53:39;;;;;;;;;;;;;;;;;;5093364;28;19916;-88
2023/03/10 09:56:13;;;;;;;;;;;;;;;;;;5093248;28;20019;-85
2023/03/10 09:59:13;;;;;;;;;;;;;;;;;;5093231;28;19920;-87
2023/03/10 10:01:43;;;;;;;;;;;;;;;;;;5011170;28;20324;-87
2023/03/10 10:04:11;;;;;;;;;;;;;;;;;;5010920;28;19972;-87
2023/03/10 10:06:38;;;;;;;;;;;;;;;;;;5011300;28;20369;-87
2023/03/10 10:09:06;;;;;;;;;;;;;;;;;;5011233;28;19917;-87
2023/03/10 10:11:33;;;;;;;;;;;;;;;;;;5011319;28;20285;-88
2023/03/10 10:14:14;;;;;;;;;;;;;;;;;;5011217;28;19966;-87
2023/03/10 10:17:00;;;;;;;;;;;;;;;;;;4994479;28;20266;-87
2023/03/10 10:19:26;;;;;;;;;;;;;;;;;;5011217;28;19918;-87
2023/03/10 10:22:00;;;;;;;;;;;;;;;;;;5010953;28;20361;-85
2023/03/10 10:24:26;;;;;;;;;;;;;;;;;;4994533;28;19918;-85
2023/03/10 10:26:51;;;;;;;;;;;;;;;;;;5012117;28;19922;-86
2023/03/10 10:29:17;;;;;;;;;;;;;;;;;;5014674;28;19960;-85
2023/03/10 10:32:00;;;;;;;;;;;;;;;;;;5014542;28;20024;-86
2023/03/10 10:34:25;;;;;;;;;;;;;;;;;;5015010;28;19917;-87
2023/03/10 10:36:53;;;;;;;;;;;;;;;;;;5078542;28;19916;-86
2023/03/10 10:39:39;;;;;;;;;;;;;;;;;;5096529;28;19920;-88
2023/03/10 10:42:12;;;;;;;;;;;;;;;;;;5095806;28;19926;-86
2023/03/10 10:44:41;;;;;;;;;;;;;;;;;;5096299;28;19923;-86
2023/03/10 10:47:16;;;;;;;;;;;;;;;;;;5096388;28;20395;-87
2023/03/10 10:49:43;;;;;;;;;;;;;;;;;;5096361;28;19963;-87
2023/03/10 10:52:18;;;;;;;;;;;;;;;;;;5096492;28;20010;-87
2023/03/10 10:54:50;;;;;;;;;;;;;;;;;;5096214;28;19920;-86
2023/03/10 10:57:19;;;;;;;;;;;;;;;;;;5096196;28;19946;-87
2023/03/10 10:59:45;;;;;;;;;;;;;;;;;;5096045;28;20348;-87
2023/03/10 11:02:31;;;;;;;;;;;;;;;;;;5096104;28;19959;-87
2023/03/10 11:05:06;;;;;;;;;;;;;;;;;;5095434;28;19924;-89
2023/03/10 11:07:32;;;;;;;;;;;;;;;;;;5096000;28;20019;-88
2023/03/10 11:09:57;;;;;;;;;;;;;;;;;;5077945;28;20005;-88
2023/03/10 11:12:46;;;;;;;;;;;;;;;;;;5077666;28;19916;-87
2023/03/10 11:15:15;;;;;;;;;;;;;;;;;;5095773;28;19977;-88
2023/03/10 11:17:45;;;;;;;;;;;;;;;;;;5077626;28;19916;-86
2023/03/10 11:20:23;;;;;;;;;;;;;;;;;;5095687;28;19916;-87
2023/03/10 11:23:07;;;;;;;;;;;;;;;;;;5095635;28;19916;-87
2023/03/10 11:25:46;;;;;;;;;;;;;;;;;;5095676;28;19927;-88
2023/03/10 11:28:17;;;;;;;;;;;;;;;;;;5077570;28;19982;-88
2023/03/10 11:31:06;;;;;;;;;;;;;;;;;;5095476;28;20000;-88
2023/03/10 11:33:42;;;;;;;;;;;;;;;;;;5077351;28;19920;-88
2023/03/10 11:36:27;;;;;;;;;;;;;;;;;;5095370;28;19916;-86
2023/03/10 11:38:57;;;;;;;;;;;;;;;;;;5095276;28;19999;-86
2023/03/10 11:41:25;;;;;;;;;;;;;;;;;;5077211;28;19927;-88
2023/03/10 11:44:03;;;;;;;;;;;;;;;;;;5095243;28;19966;-88
2023/03/10 11:46:29;;;;;;;;;;;;;;;;;;5095279;28;20272;-87
2023/03/10 11:49:03;;;;;;;;;;;;;;;;;;5077015;28;19916;-88
2023/03/10 11:51:34;;;;;;;;;;;;;;;;;;5076998;28;19927;-89
2023/03/10 11:54:02;;;;;;;;;;;;;;;;;;5095046;28;19920;-88
2023/03/10 11:56:28;;;;;;;;;;;;;;;;;;5076897;28;20379;-88
2023/03/10 11:58:56;;;;;;;;;;;;;;;;;;5095029;28;19916;-88
2023/03/10 12:01:25;;;;;;;;;;;;;;;;;;5076623;28;19921;-86
2023/03/10 12:04:06;;;;;;;;;;;;;;;;;;5094748;28;19963;-89
2023/03/10 12:06:35;;;;;;;;;;;;;;;;;;5095161;28;19924;-89
2023/03/10 12:09:02;;;;;;;;;;;;;;;;;;5077164;28;20364;-89
2023/03/10 12:11:28;;;;;;;;;;;;;;;;;;5076825;28;19916;-89
2023/03/10 12:14:00;;;;;;;;;;;;;;;;;;5095016;28;20003;-88
2023/03/10 12:16:27;;;;;;;;;;;;;;;;;;5097067;28;20729;-88
2023/03/10 12:18:53;;;;;;;;;;;;;;;;;;5088673;28;19916;-88
2023/03/10 12:21:22;;;;;;;;;;;;;;;;;;5095187;28;19935;-87
2023/03/10 12:23:49;;;;;;;;;;;;;;;;;;5099403;28;19939;-88
2023/03/10 12:26:31;;;;;;;;;;;;;;;;;;5077061;28;19923;-86
2023/03/10 12:29:16;;;;;;;;;;;;;;;;;;5094634;28;19967;-87
2023/03/10 12:31:45;;;;;;;;;;;;;;;;;;5094475;28;19928;-88
2023/03/10 12:34:13;;;;;;;;;;;;;;;;;;5094416;28;19916;-87
2023/03/10 12:36:40;;;;;;;;;;;;;;;;;;5076287;28;19912;-87
2023/03/10 12:39:26;;;;;;;;;;;;;;;;;;5076221;28;19958;-86
2023/03/10 12:41:55;;;;;;;;;;;;;;;;;;5062010;28;20061;-88
2023/03/10 12:44:21;;;;;;;;;;;;;;;;;;5076020;28;20469;-87
2023/03/10 12:46:48;;;;;;;;;;;;;;;;;;5075975;28;19920;-87
2023/03/10 12:49:14;;;;;;;;;;;;;;;;;;5093551;28;20280;-88
2023/03/10 12:51:41;;;;;;;;;;;;;;;;;;5094109;28;19945;-89
2023/03/10 12:54:25;;;;;;;;;;;;;;;;;;5094036;28;19963;-88
2023/03/10 12:57:10;;;;;;;;;;;;;;;;;;5075847;28;19923;-88
2023/03/10 12:59:36;;;;;;;;;;;;;;;;;;5062344;28;19916;-88
2023/03/10 13:02:03;;;;;;;;;;;;;;;;;;5071244;28;19923;-89
2023/03/10 13:04:29;;;;;;;;;;;;;;;;;;5088252;28;19928;-88
2023/03/10 13:06:55;;;;;;;;;;;;;;;;;;5085164;28;19925;-88
2023/03/10 13:09:31;;;;;;;;;;;;;;;;;;5066016;28;19913;-87
2023/03/10 13:12:03;;;;;;;;;;;;;;;;;;5084333;28;19920;-89
2023/03/10 13:14:33;;;;;;;;;;;;;;;;;;5080719;28;19922;-88
2023/03/10 13:16:59;;;;;;;;;;;;;;;;;;5063389;28;19969;-87
2023/03/10 13:19:29;;;;;;;;;;;;;;;;;;5078187;28;19937;-88
2023/03/10 13:21:54;;;;;;;;;;;;;;;;;;5079736;28;19942;-89
2023/03/10 13:24:27;;;;;;;;;;;;;;;;;;5067916;28;20290;-88
2023/03/10 13:27:02;;;;;;;;;;;;;;;;;;5069208;28;19923;-88
2023/03/10 13:29:27;;;;;;;;;;;;;;;;;;5075377;28;19955;-87
2023/03/10 13:31:54;;;;;;;;;;;;;;;;;;5093483;28;19961;-87
2023/03/10 13:34:20;;;;;;;;;;;;;;;;;;5092167;28;20002;-86
2023/03/10 13:36:46;;;;;;;;;;;;;;;;;;5093360;28;20387;-87
2023/03/10 13:39:16;;;;;;;;;;;;;;;;;;5093348;28;19959;-86
2023/03/10 13:41:48;;;;;;;;;;;;;;;;;;5092149;28;19999;-85
2023/03/10 13:44:24;;;;;;;;;;;;;;;;;;5093364;28;20014;-85
2023/03/10 13:46:54;;;;;;;;;;;;;;;;;;5093283;28;19916;-87
2023/03/10 13:49:23;;;;;;;;;;;;;;;;;;5093355;28;19916;-87
2023/03/10 13:51:53;;;;;;;;;;;;;;;;;;5092052;28;19916;-86
2023/03/10 13:54:20;;;;;;;;;;;;;;;;;;5091972;28;20366;-87
2023/03/10 13:56:46;;;;;;;;;;;;;;;;;;5092058;28;19958;-87
2023/03/10 13:59:16;;;;;;;;;;;;;;;;;;5093168;28;19920;-88
2023/03/10 14:01:46;;;;;;;;;;;;;;;;;;5094785;28;19920;-87
2023/03/10 14:04:36;;;;;;;;;;;;;;;;;;5097015;28;19927;-86
2023/03/10 14:07:09;;;;;;;;;;;;;;;;;;5095847;28;19921;-86
2023/03/10 14:09:35;;;;;;;;;;;;;;;;;;5095949;28;19962;-86
2023/03/10 14:12:00;;;;;;;;;;;;;;;;;;5095822;28;19916;-86
2023/03/10 14:14:27;;;;;;;;;;;;;;;;;;5097033;28;19912;-86
2023/03/10 14:16:55;;;;;;;;;;;;;;;;;;5097377;28;20363;-86
2023/03/10 14:19:55;;;;;;;;;;;;;;;;;;5096937;28;19912;-87
2023/03/10 14:22:24;;;;;;;;;;;;;;;;;;5054332;28;19917;-86
2023/03/10 14:24:50;;;;;;;;;;;;;;;;;;5054501;28;19917;-86
2023/03/10 14:27:15;;;;;;;;;;;;;;;;;;5037717;28;19921;-89
2023/03/10 14:29:42;;;;;;;;;;;;;;;;;;5054146;28;19913;-85
2023/03/10 14:32:11;;;;;;;;;;;;;;;;;;5054328;28;19983;-86
2023/03/10 14:34:37;;;;;;;;;;;;;;;;;;5054205;28;19954;-86
2023/03/10 14:37:02;;;;;;;;;;;;;;;;;;5037787;28;20081;-86
2023/03/10 14:39:27;;;;;;;;;;;;;;;;;;5037384;28;19917;-85
2023/03/10 14:41:53;;;;;;;;;;;;;;;;;;5054047;28;19915;-87
2023/03/10 14:44:18;;;;;;;;;;;;;;;;;;5037123;28;20370;-86
2023/03/10 14:46:46;;;;;;;;;;;;;;;;;;5053988;28;20418;-86
2023/03/10 14:49:13;;;;;;;;;;;;;;;;;;5053836;28;19924;-86
2023/03/10 14:51:39;;;;;;;;;;;;;;;;;;5054001;28;20004;-89
2023/03/10 14:54:12;;;;;;;;;;;;;;;;;;5053923;28;19999;-89
2023/03/10 14:56:38;;;;;;;;;;;;;;;;;;5080820;28;19923;-86
2023/03/10 14:59:05;;;;;;;;;;;;;;;;;;5096280;28;19920;-86
2023/03/10 15:01:30;;;;;;;;;;;;;;;;;;5094793;28;19924;-86
2023/03/10 15:03:56;;;;;;;;;;;;;;;;;;5095753;28;19916;-87
2023/03/10 15:06:21;;;;;;;;;;;;;;;;;;5096295;28;19920;-87
2023/03/10 15:08:47;;;;;;;;;;;;;;;;;;5094813;28;20264;-85
2023/03/10 15:11:12;;;;;;;;;;;;;;;;;;5095917;28;20401;-87
2023/03/10 15:13:38;;;;;;;;;;;;;;;;;;5095186;28;19920;-86
2023/03/10 15:16:04;;;;;;;;;;;;;;;;;;5095848;28;20406;-86
2023/03/10 15:18:29;;;;;;;;;;;;;;;;;;5095690;28;19916;-88
2023/03/10 15:20:57;;;;;;;;;;;;;;;;;;5094409;28;19916;-87
2023/03/10 15:23:26;;;;;;;;;;;;;;;;;;5094265;28;20368;-87
2023/03/10 15:25:52;;;;;;;;;;;;;;;;;;5095552;28;19920;-87
2023/03/10 15:28:17;;;;;;;;;;;;;;;;;;5094388;28;19961;-87
2023/03/10 15:30:43;;;;;;;;;;;;;;;;;;5095870;28;19920;-86
2023/03/10 15:33:09;;;;;;;;;;;;;;;;;;5095641;28;19920;-86
2023/03/10 15:35:35;;;;;;;;;;;;;;;;;;5095493;28;19920;-87
2023/03/10 15:38:00;;;;;;;;;;;;;;;;;;5094153;28;20383;-85
2023/03/10 15:40:27;;;;;;;;;;;;;;;;;;5095361;28;20359;-87
2023/03/10 15:42:54;;;;;;;;;;;;;;;;;;5095386;28;19919;-87
2023/03/10 15:45:20;;;;;;;;;;;;;;;;;;5095236;28;19927;-87
2023/03/10 15:47:45;;;;;;;;;;;;;;;;;;5094112;28;19946;-87
2023/03/10 15:50:12;;;;;;;;;;;;;;;;;;5095542;28;19922;-86
2023/03/10 15:52:37;;;;;;;;;;;;;;;;;;5096103;28;20383;-84
2023/03/10 15:55:03;;;;;;;;;;;;;;;;;;5094409;28;19916;-86
2023/03/10 15:57:28;;;;;;;;;;;;;;;;;;5095259;28;19917;-85
2023/03/10 15:59:54;;;;;;;;;;;;;;;;;;5095282;28;19916;-85
2023/03/10 16:02:19;;;;;;;;;;;;;;;;;;5094911;28;19916;-88
2023/03/10 16:04:45;;;;;;;;;;;;;;;;;;5095922;28;19921;-85
2023/03/10 16:07:10;;;;;;;;;;;;;;;;;;5097801;28;19916;-85
2023/03/10 16:09:36;;;;;;;;;;;;;;;;;;5102151;28;19916;-86
2023/03/10 16:12:02;;;;;;;;;;;;;;;;;;5115059;28;19940;-84
2023/03/10 16:14:28;;;;;;;;;;;;;;;;;;5110861;28;20391;-86
2023/03/10 16:16:54;;;;;;;;;;;;;;;;;;5093644;28;19916;-86
2023/03/10 16:19:19;;;;;;;;;;;;;;;;;;5097105;28;19968;-85
2023/03/10 16:21:45;;;;;;;;;;;;;;;;;;5084363;28;19920;-86
2023/03/10 16:24:11;;;;;;;;;;;;;;;;;;5084121;28;20291;-85
2023/03/10 16:26:36;;;;;;;;;;;;;;;;;;5092094;28;19920;-85
2023/03/10 16:29:02;;;;;;;;;;;;;;;;;;5086225;28;19927;-86
2023/03/10 16:31:28;;;;;;;;;;;;;;;;;;5088945;28;20380;-87
2023/03/10 16:33:54;;;;;;;;;;;;;;;;;;5080438;28;20386;-90
2023/03/10 16:36:20;;;;;;;;;;;;;;;;;;5076786;28;19920;-86
2023/03/10 16:38:46;;;;;;;;;;;;;;;;;;5088585;28;19935;-85
2023/03/10 16:41:12;;;;;;;;;;;;;;;;;;5091716;28;19920;-85
2023/03/10 16:43:37;;;;;;;;;;;;;;;;;;5087621;28;20015;-88
2023/03/10 16:46:05;;;;;;;;;;;;;;;;;;5091322;28;19916;-87
2023/03/10 16:48:30;;;;;;;;;;;;;;;;;;5077213;28;19923;-86